Time;durP1;ratioP1;P1;durP2;ratioP2;P2;SDS_P1;SDS_P2;PMS_P1;PMS_P2;Temp;Humidity;BMP_temperature;BMP_pressure;BME280_temperature;BME280_humidity;BME280_pressure;Samples;Min_cycle;Max_cycle;Signal;HPM_P1;HPM_P2
2023/07/05 00:02:18;;;;;;;7.40;5.72;;;;;;;;;;10331478;28;20072;-59
2023/07/05 00:07:18;;;;;;;7.85;7.07;;;;;;;;;;10329388;28;20080;-60
2023/07/05 00:12:17;;;;;;;9.55;7.13;;;;;;;;;;10329148;28;20064;-60
2023/07/05 00:17:15;;;;;;;6.57;5.97;;;;;;;;;;10322718;28;20091;-60
2023/07/05 00:22:14;;;;;;;7.68;5.97;;;;;;;;;;10332335;28;20468;-58
2023/07/05 00:27:13;;;;;;;8.88;6.05;;;;;;;;;;10336056;28;20068;-58
2023/07/05 00:32:11;;;;;;;7.35;5.72;;;;;;;;;;10336456;28;20067;-59
2023/07/05 00:37:09;;;;;;;8.18;7.38;;;;;;;;;;10334865;28;20076;-59
2023/07/05 00:42:09;;;;;;;7.35;6.30;;;;;;;;;;10321831;28;20080;-59
2023/07/05 00:47:09;;;;;;;7.03;6.35;;;;;;;;;;10337873;28;20080;-59
2023/07/05 00:52:11;;;;;;;10.50;6.75;;;;;;;;;;10336705;28;20069;-59
2023/07/05 00:57:12;;;;;;;7.00;6.30;;;;;;;;;;10335651;28;20115;-58
2023/07/05 01:02:11;;;;;;;7.38;6.68;;;;;;;;;;10317560;28;20075;-58
2023/07/05 01:07:09;;;;;;;7.50;6.80;;;;;;;;;;10317719;28;20072;-59
2023/07/05 01:12:14;;;;;;;8.20;7.50;;;;;;;;;;10336024;28;20071;-59
2023/07/05 01:17:16;;;;;;;9.13;6.95;;;;;;;;;;10331728;28;20072;-58
2023/07/05 01:22:21;;;;;;;9.07;6.73;;;;;;;;;;10333942;28;20068;-59
2023/07/05 01:27:38;;;;;;;7.75;6.65;;;;;;;;;;10334964;28;20322;-57
2023/07/05 01:32:41;;;;;;;7.38;6.68;;;;;;;;;;10336117;28;20098;-58
2023/07/05 01:37:42;;;;;;;7.97;6.68;;;;;;;;;;10335181;28;20072;-59
2023/07/05 01:42:41;;;;;;;8.02;6.53;;;;;;;;;;10334885;28;20059;-59
2023/07/05 01:47:45;;;;;;;9.60;6.93;;;;;;;;;;10326383;28;20505;-58
2023/07/05 01:52:47;;;;;;;11.88;6.57;;;;;;;;;;10340265;28;20066;-59
2023/07/05 01:57:48;;;;;;;6.47;5.88;;;;;;;;;;10334436;28;20072;-58
2023/07/05 02:02:49;;;;;;;7.35;6.60;;;;;;;;;;10332216;28;20063;-58
2023/07/05 02:07:48;;;;;;;9.23;6.80;;;;;;;;;;10313518;28;20083;-59
2023/07/05 02:12:46;;;;;;;8.85;6.47;;;;;;;;;;10321023;28;20067;-59
2023/07/05 02:17:44;;;;;;;8.60;6.38;;;;;;;;;;10333327;28;20464;-59
2023/07/05 02:22:44;;;;;;;7.30;6.57;;;;;;;;;;10330374;28;20071;-60
2023/07/05 02:27:42;;;;;;;7.55;6.63;;;;;;;;;;10333179;28;20063;-60
2023/07/05 02:32:41;;;;;;;7.78;6.40;;;;;;;;;;10331493;28;20086;-59
2023/07/05 02:37:39;;;;;;;6.90;6.03;;;;;;;;;;10331177;28;20067;-58
2023/07/05 02:42:39;;;;;;;7.03;6.15;;;;;;;;;;10331468;28;20516;-59
2023/07/05 02:47:37;;;;;;;7.85;6.60;;;;;;;;;;10329739;28;20477;-58
2023/07/05 02:52:35;;;;;;;10.77;7.32;;;;;;;;;;10333250;28;20095;-59
2023/07/05 02:57:33;;;;;;;6.95;6.35;;;;;;;;;;10330132;28;20083;-60
2023/07/05 03:02:33;;;;;;;7.25;6.55;;;;;;;;;;10314439;28;20075;-60
2023/07/05 03:07:31;;;;;;;6.50;5.90;;;;;;;;;;10331327;28;20068;-60
2023/07/05 03:12:29;;;;;;;8.25;6.50;;;;;;;;;;10307036;28;20072;-59
2023/07/05 03:17:28;;;;;;;7.38;6.53;;;;;;;;;;10324870;28;20076;-59
2023/07/05 03:22:27;;;;;;;8.07;6.85;;;;;;;;;;10328635;28;20068;-60
2023/07/05 03:27:27;;;;;;;7.00;6.38;;;;;;;;;;10328385;28;20113;-59
2023/07/05 03:32:26;;;;;;;7.72;7.03;;;;;;;;;;10311576;28;20080;-60
2023/07/05 03:37:24;;;;;;;8.57;6.95;;;;;;;;;;10325207;28;20076;-60
2023/07/05 03:42:24;;;;;;;10.82;7.95;;;;;;;;;;10330532;28;20074;-60
2023/07/05 03:47:22;;;;;;;8.43;7.63;;;;;;;;;;10332567;28;20099;-59
2023/07/05 03:52:20;;;;;;;11.85;9.02;;;;;;;;;;10333524;28;20075;-59
2023/07/05 03:57:18;;;;;;;15.68;8.02;;;;;;;;;;10331502;28;20076;-60
2023/07/05 04:02:18;;;;;;;9.50;7.97;;;;;;;;;;10340580;28;20103;-60
2023/07/05 04:07:16;;;;;;;9.05;8.10;;;;;;;;;;10337503;28;20075;-58
2023/07/05 04:12:14;;;;;;;16.40;9.10;;;;;;;;;;10336764;28;20102;-59
2023/07/05 04:17:13;;;;;;;12.73;8.90;;;;;;;;;;10332278;28;20532;-60
2023/07/05 04:22:12;;;;;;;10.57;8.50;;;;;;;;;;10332770;28;20060;-60
2023/07/05 04:27:10;;;;;;;12.85;10.68;;;;;;;;;;10332916;28;20080;-59
2023/07/05 04:32:09;;;;;;;9.80;8.63;;;;;;;;;;10334086;28;20068;-60
2023/07/05 04:37:07;;;;;;;10.48;8.88;;;;;;;;;;10336563;28;20091;-60
2023/07/05 04:42:07;;;;;;;10.52;9.35;;;;;;;;;;10336001;28;20072;-59
2023/07/05 04:47:05;;;;;;;12.75;9.15;;;;;;;;;;10335235;28;20099;-60
2023/07/05 04:52:06;;;;;;;15.65;9.70;;;;;;;;;;10335636;28;20056;-60
2023/07/05 04:57:05;;;;;;;10.75;9.75;;;;;;;;;;10341534;28;20090;-59
2023/07/05 05:02:17;;;;;;;13.68;11.40;;;;;;;;;;10334613;28;20517;-59
2023/07/05 05:07:15;;;;;;;11.55;9.77;;;;;;;;;;10334584;28;20492;-59
2023/07/05 05:12:14;;;;;;;11.80;10.55;;;;;;;;;;10334749;28;20064;-59
2023/07/05 05:17:12;;;;;;;14.38;9.77;;;;;;;;;;10333774;28;20075;-59
2023/07/05 05:22:12;;;;;;;16.70;9.88;;;;;;;;;;10332293;28;20079;-59
2023/07/05 05:27:10;;;;;;;10.43;9.35;;;;;;;;;;10331760;28;20045;-59
2023/07/05 05:32:10;;;;;;;9.27;8.07;;;;;;;;;;10331449;28;20517;-59
2023/07/05 05:37:08;;;;;;;13.73;8.65;;;;;;;;;;10333832;28;20285;-59
2023/07/05 05:42:07;;;;;;;9.35;8.05;;;;;;;;;;10334260;28;20063;-59
2023/07/05 05:47:06;;;;;;;9.60;8.60;;;;;;;;;;10334883;28;20088;-59
2023/07/05 05:52:04;;;;;;;9.27;7.30;;;;;;;;;;10331342;28;20106;-59
2023/07/05 05:57:03;;;;;;;9.43;7.13;;;;;;;;;;10333455;28;20083;-59
2023/07/05 06:02:02;;;;;;;15.77;7.53;;;;;;;;;;10335709;28;20067;-60
2023/07/05 06:07:01;;;;;;;7.63;6.88;;;;;;;;;;10331673;28;20870;-59
2023/07/05 06:11:59;;;;;;;6.75;6.05;;;;;;;;;;10332531;28;20087;-60
2023/07/05 06:16:57;;;;;;;9.43;8.57;;;;;;;;;;10337222;28;20489;-60
2023/07/05 06:21:57;;;;;;;14.95;10.07;;;;;;;;;;10333297;28;20076;-60
2023/07/05 06:26:55;;;;;;;8.18;7.43;;;;;;;;;;10326008;28;20079;-60
2023/07/05 06:31:53;;;;;;;9.40;7.25;;;;;;;;;;10330314;28;20070;-60
2023/07/05 06:36:51;;;;;;;8.68;6.68;;;;;;;;;;10331554;28;20076;-60
2023/07/05 06:41:51;;;;;;;8.82;7.65;;;;;;;;;;10329155;28;20094;-59
2023/07/05 06:46:49;;;;;;;8.45;7.63;;;;;;;;;;10330163;28;20098;-60
2023/07/05 06:51:48;;;;;;;8.50;7.70;;;;;;;;;;10329113;28;20067;-60
2023/07/05 06:56:46;;;;;;;7.60;6.13;;;;;;;;;;10327352;28;20070;-59
2023/07/05 07:01:46;;;;;;;8.25;7.47;;;;;;;;;;10329846;28;20068;-59
2023/07/05 07:06:44;;;;;;;9.60;7.35;;;;;;;;;;10330380;28;20072;-60
2023/07/05 07:11:42;;;;;;;10.15;6.63;;;;;;;;;;10327808;28;20060;-60
2023/07/05 07:16:41;;;;;;;7.18;6.45;;;;;;;;;;10329849;28;20068;-60
2023/07/05 07:21:40;;;;;;;8.88;6.78;;;;;;;;;;10326707;28;20064;-60
2023/07/05 07:26:38;;;;;;;9.88;7.43;;;;;;;;;;10324029;28;20076;-60
2023/07/05 07:31:38;;;;;;;9.00;6.30;;;;;;;;;;10328334;28;20072;-59
2023/07/05 07:36:37;;;;;;;8.45;6.20;;;;;;;;;;10329889;28;20624;-59
2023/07/05 07:41:37;;;;;;;10.75;7.72;;;;;;;;;;10335173;28;20079;-59
2023/07/05 07:46:39;;;;;;;10.15;8.07;;;;;;;;;;10336070;28;20145;-59
2023/07/05 07:51:37;;;;;;;10.02;8.20;;;;;;;;;;10336533;28;20063;-59
2023/07/05 07:56:41;;;;;;;9.30;6.57;;;;;;;;;;10339899;28;20460;-59
2023/07/05 08:01:39;;;;;;;9.23;6.88;;;;;;;;;;10339620;28;20070;-59
2023/07/05 08:06:39;;;;;;;8.23;7.53;;;;;;;;;;10336843;28;20067;-59
2023/07/05 08:11:39;;;;;;;8.75;6.60;;;;;;;;;;10337555;28;20067;-60
2023/07/05 08:16:37;;;;;;;9.25;6.32;;;;;;;;;;10332306;28;20318;-59
2023/07/05 08:21:36;;;;;;;10.77;6.03;;;;;;;;;;10337754;28;20075;-60
2023/07/05 08:26:35;;;;;;;8.98;8.07;;;;;;;;;;10336851;28;20067;-57
2023/07/05 08:31:35;;;;;;;8.00;6.60;;;;;;;;;;10338616;28;20074;-59
2023/07/05 08:36:34;;;;;;;10.13;7.63;;;;;;;;;;10336900;28;20445;-59
2023/07/05 08:41:39;;;;;;;9.40;6.38;;;;;;;;;;10333616;28;20068;-59
2023/07/05 08:46:39;;;;;;;8.57;6.35;;;;;;;;;;10335466;28;20547;-59
2023/07/05 08:51:37;;;;;;;13.77;6.72;;;;;;;;;;10332450;28;20063;-59
2023/07/05 08:56:38;;;;;;;11.52;6.95;;;;;;;;;;10335966;28;20079;-59
2023/07/05 09:01:40;;;;;;;10.60;6.35;;;;;;;;;;10315657;28;20603;-58
2023/07/05 09:06:45;;;;;;;10.70;6.45;;;;;;;;;;10334597;28;20558;-59
2023/07/05 09:11:48;;;;;;;9.85;5.63;;;;;;;;;;10331442;28;20083;-59
2023/07/05 09:16:54;;;;;;;9.70;5.60;;;;;;;;;;10329376;28;20956;-59
2023/07/05 09:21:54;;;;;;;9.82;5.28;;;;;;;;;;10332084;28;20078;-58
2023/07/05 09:26:53;;;;;;;6.85;4.63;;;;;;;;;;10337253;28;20139;-60
2023/07/05 09:31:54;;;;;;;9.07;4.63;;;;;;;;;;10337096;28;20465;-60
2023/07/05 09:36:53;;;;;;;5.15;4.00;;;;;;;;;;10334816;28;20075;-59
2023/07/05 09:41:52;;;;;;;8.10;3.83;;;;;;;;;;10335549;28;20090;-59
2023/07/05 09:46:50;;;;;;;7.65;4.00;;;;;;;;;;10332928;28;20091;-59
2023/07/05 09:51:50;;;;;;;6.10;4.03;;;;;;;;;;10329438;28;20068;-59
2023/07/05 09:56:56;;;;;;;6.95;3.30;;;;;;;;;;10331777;28;20074;-59
2023/07/05 10:01:55;;;;;;;7.35;3.35;;;;;;;;;;10333321;28;20114;-59
2023/07/05 10:06:55;;;;;;;6.25;3.25;;;;;;;;;;10328545;28;20079;-59
2023/07/05 10:11:57;;;;;;;4.95;3.13;;;;;;;;;;10325998;28;20083;-58
2023/07/05 10:16:57;;;;;;;3.03;2.65;;;;;;;;;;10328611;28;20068;-59
2023/07/05 10:22:02;;;;;;;5.95;2.92;;;;;;;;;;10333004;28;20072;-58
2023/07/05 10:27:02;;;;;;;10.40;3.08;;;;;;;;;;10330533;28;20527;-58
2023/07/05 10:32:00;;;;;;;6.20;3.00;;;;;;;;;;10329808;28;20082;-59
2023/07/05 10:37:04;;;;;;;9.10;3.58;;;;;;;;;;10331862;28;20078;-58
2023/07/05 10:42:02;;;;;;;6.20;4.88;;;;;;;;;;10326475;28;20087;-59
2023/07/05 10:47:01;;;;;;;2.85;2.55;;;;;;;;;;10331209;28;20072;-59
2023/07/05 10:52:03;;;;;;;5.03;3.05;;;;;;;;;;10328431;28;20488;-59
2023/07/05 10:57:05;;;;;;;5.27;3.43;;;;;;;;;;10330018;28;20068;-59
2023/07/05 11:02:11;;;;;;;5.72;3.50;;;;;;;;;;10335739;28;20075;-59
2023/07/05 11:07:12;;;;;;;10.18;3.05;;;;;;;;;;10329193;28;20071;-60
2023/07/05 11:12:14;;;;;;;6.38;3.25;;;;;;;;;;10331462;28;20072;-59
2023/07/05 11:17:19;;;;;;;3.72;2.90;;;;;;;;;;10331633;28;20072;-56
2023/07/05 11:22:35;;;;;;;4.10;2.85;;;;;;;;;;10327656;28;20150;-60
2023/07/05 11:27:51;;;;;;;5.13;3.30;;;;;;;;;;10330428;28;20079;-59
2023/07/05 11:33:08;;;;;;;5.13;3.47;;;;;;;;;;10333657;28;20076;-60
2023/07/05 11:38:07;;;;;;;11.73;2.97;;;;;;;;;;10330606;28;20064;-59
2023/07/05 11:43:24;;;;;;;6.45;3.08;;;;;;;;;;10332622;28;20611;-59
2023/07/05 11:48:36;;;;;;;3.97;3.25;;;;;;;;;;10332791;28;20076;-60
2023/07/05 11:53:35;;;;;;;7.40;3.45;;;;;;;;;;10330439;28;20477;-59
2023/07/05 11:58:36;;;;;;;5.57;4.32;;;;;;;;;;10328267;28;20498;-59
2023/07/05 12:03:38;;;;;;;5.65;3.65;;;;;;;;;;10328479;28;20083;-59
2023/07/05 12:08:37;;;;;;;6.78;3.65;;;;;;;;;;10329482;28;20065;-59
2023/07/05 12:13:37;;;;;;;5.30;3.30;;;;;;;;;;10333823;28;20068;-59
2023/07/05 12:18:36;;;;;;;3.90;3.40;;;;;;;;;;10337294;28;20076;-58
2023/07/05 12:23:35;;;;;;;6.13;3.38;;;;;;;;;;10335622;28;20509;-59
2023/07/05 12:28:35;;;;;;;5.57;3.22;;;;;;;;;;10336661;28;20590;-59
2023/07/05 12:33:36;;;;;;;15.23;3.53;;;;;;;;;;10336045;28;20060;-59
2023/07/05 12:38:35;;;;;;;5.25;3.15;;;;;;;;;;10339153;28;20076;-59
2023/07/05 12:43:33;;;;;;;8.10;4.35;;;;;;;;;;10338729;28;20083;-59
2023/07/05 12:48:31;;;;;;;10.73;3.65;;;;;;;;;;10338105;28;20088;-59
2023/07/05 12:53:31;;;;;;;7.60;2.78;;;;;;;;;;10338821;28;20072;-59
2023/07/05 12:58:29;;;;;;;7.03;3.47;;;;;;;;;;10335011;28;20503;-59
2023/07/05 13:03:29;;;;;;;4.35;3.63;;;;;;;;;;10334452;28;20492;-60
2023/07/05 13:08:29;;;;;;;6.35;3.60;;;;;;;;;;10334534;28;20072;-59
2023/07/05 13:13:31;;;;;;;4.15;2.78;;;;;;;;;;10334191;28;20076;-59
2023/07/05 13:18:31;;;;;;;11.57;3.63;;;;;;;;;;10348624;28;20484;-59
2023/07/05 13:23:30;;;;;;;4.10;3.08;;;;;;;;;;10336867;28;20469;-59
2023/07/05 13:28:31;;;;;;;5.35;2.97;;;;;;;;;;10331501;28;20532;-61
2023/07/05 13:33:34;;;;;;;7.13;3.43;;;;;;;;;;10337937;28;20078;-58
2023/07/05 13:38:35;;;;;;;8.30;4.13;;;;;;;;;;10346164;28;20082;-58
2023/07/05 13:43:34;;;;;;;9.50;3.72;;;;;;;;;;10342114;28;20087;-58
2023/07/05 13:48:32;;;;;;;9.80;4.63;;;;;;;;;;10342669;28;20521;-57
2023/07/05 13:53:33;;;;;;;6.47;3.40;;;;;;;;;;10347369;28;20508;-57
2023/07/05 13:58:31;;;;;;;4.93;3.00;;;;;;;;;;10343347;28;20079;-58
2023/07/05 14:03:30;;;;;;;5.30;3.97;;;;;;;;;;10336011;28;20489;-59
2023/07/05 14:08:49;;;;;;;9.27;3.92;;;;;;;;;;10336519;28;20071;-59
2023/07/05 14:13:48;;;;;;;8.38;4.32;;;;;;;;;;10334988;28;20068;-58
2023/07/05 14:18:46;;;;;;;7.40;4.00;;;;;;;;;;10329476;28;20520;-59
2023/07/05 14:23:44;;;;;;;7.45;4.18;;;;;;;;;;10327290;28;20075;-58
2023/07/05 14:28:44;;;;;;;3.78;3.05;;;;;;;;;;10329504;28;20075;-58
2023/07/05 14:33:42;;;;;;;6.07;3.20;;;;;;;;;;10330158;28;20158;-59
2023/07/05 14:38:41;;;;;;;5.65;4.05;;;;;;;;;;10332612;28;20067;-59
2023/07/05 14:43:39;;;;;;;5.53;3.95;;;;;;;;;;10333755;28;20083;-58
2023/07/05 14:48:39;;;;;;;8.27;4.15;;;;;;;;;;10336090;28;20087;-60
2023/07/05 14:53:37;;;;;;;6.35;3.15;;;;;;;;;;10336293;28;20073;-58
2023/07/05 14:58:35;;;;;;;5.72;3.70;;;;;;;;;;10339523;28;20528;-58
2023/07/05 15:03:34;;;;;;;8.70;3.95;;;;;;;;;;10336343;28;20079;-58
2023/07/05 15:08:34;;;;;;;5.85;4.70;;;;;;;;;;10331593;28;20068;-58
2023/07/05 15:13:34;;;;;;;7.60;5.20;;;;;;;;;;10337035;28;20087;-58
2023/07/05 15:18:32;;;;;;;6.45;3.85;;;;;;;;;;10342840;28;20083;-58
2023/07/05 15:23:30;;;;;;;6.07;4.35;;;;;;;;;;10336121;28;20078;-58
2023/07/05 15:28:30;;;;;;;6.22;3.97;;;;;;;;;;10335715;28;20064;-58
2023/07/05 15:33:28;;;;;;;7.75;3.67;;;;;;;;;;10335484;28;20080;-58
2023/07/05 15:38:26;;;;;;;5.60;3.78;;;;;;;;;;10333030;28;20535;-58
2023/07/05 15:43:24;;;;;;;5.45;3.50;;;;;;;;;;10330880;28;20072;-57
2023/07/05 15:48:24;;;;;;;4.32;3.25;;;;;;;;;;10330870;28;20080;-58
2023/07/05 15:53:23;;;;;;;5.82;3.33;;;;;;;;;;10340862;28;20496;-57
2023/07/05 15:58:22;;;;;;;13.15;5.63;;;;;;;;;;10340873;28;20079;-57
2023/07/05 16:03:21;;;;;;;4.05;3.65;;;;;;;;;;10333105;28;20086;-57
2023/07/05 16:08:21;;;;;;;5.47;3.65;;;;;;;;;;10341425;28;20067;-58
2023/07/05 16:13:19;;;;;;;5.20;3.65;;;;;;;;;;10340235;28;20076;-58
2023/07/05 16:18:17;;;;;;;4.97;4.18;;;;;;;;;;10339706;28;20068;-57
2023/07/05 16:23:16;;;;;;;7.43;4.10;;;;;;;;;;10341056;28;20488;-58
2023/07/05 16:28:15;;;;;;;13.63;4.32;;;;;;;;;;10330229;28;20482;-57
2023/07/05 16:33:13;;;;;;;7.18;5.43;;;;;;;;;;10339025;28;20108;-59
2023/07/05 16:38:16;;;;;;;8.70;6.13;;;;;;;;;;10343665;28;20117;-57
2023/07/05 16:43:16;;;;;;;10.45;4.80;;;;;;;;;;10341457;28;20127;-57
2023/07/05 16:48:14;;;;;;;8.70;5.63;;;;;;;;;;10335204;28;20084;-57
2023/07/05 16:53:15;;;;;;;10.50;5.53;;;;;;;;;;10330784;28;20082;-58
2023/07/05 16:58:15;;;;;;;11.27;7.55;;;;;;;;;;10334446;28;20075;-58
2023/07/05 17:03:15;;;;;;;11.13;5.30;;;;;;;;;;10345185;28;20083;-58
2023/07/05 17:08:13;;;;;;;9.82;4.85;;;;;;;;;;10342773;28;20095;-58
2023/07/05 17:13:14;;;;;;;12.82;5.90;;;;;;;;;;10334359;28;20072;-58
2023/07/05 17:18:12;;;;;;;10.35;4.35;;;;;;;;;;10336649;28;21001;-58
2023/07/05 17:23:12;;;;;;;5.90;4.80;;;;;;;;;;10336787;28;20078;-58
2023/07/05 17:28:10;;;;;;;10.90;4.97;;;;;;;;;;10332927;28;20505;-58
2023/07/05 17:33:09;;;;;;;10.75;6.72;;;;;;;;;;10333733;28;20064;-58
2023/07/05 17:38:07;;;;;;;11.52;7.03;;;;;;;;;;10332621;28;20082;-58
2023/07/05 17:43:07;;;;;;;12.88;6.85;;;;;;;;;;10346854;28;20071;-58
2023/07/05 17:48:05;;;;;;;12.40;6.28;;;;;;;;;;10339044;28;20076;-58
2023/07/05 17:53:05;;;;;;;13.27;6.50;;;;;;;;;;10334594;28;20083;-58
2023/07/05 17:58:04;;;;;;;10.85;5.88;;;;;;;;;;10338707;28;20075;-58
2023/07/05 18:03:04;;;;;;;14.45;6.07;;;;;;;;;;10334433;28;20086;-59
2023/07/05 18:08:05;;;;;;;17.95;7.53;;;;;;;;;;10338331;28;20067;-58
2023/07/05 18:13:06;;;;;;;18.70;7.18;;;;;;;;;;10345292;28;20056;-58
2023/07/05 18:18:09;;;;;;;22.52;6.28;;;;;;;;;;10339030;28;20068;-57
2023/07/05 18:23:07;;;;;;;;;;;;;;;;;;10338194;28;20088;-57
2023/07/05 18:28:05;;;;;;;11.05;6.00;;;;;;;;;;10339602;28;19966;-58
2023/07/05 18:33:04;;;;;;;17.80;5.82;;;;;;;;;;10334715;28;20461;-58
2023/07/05 18:38:06;;;;;;;17.83;5.25;;;;;;;;;;10320390;28;20072;-58
2023/07/05 18:43:04;;;;;;;13.85;4.97;;;;;;;;;;10339446;28;20079;-58
2023/07/05 18:48:04;;;;;;;12.57;4.68;;;;;;;;;;10331330;28;20082;-58
2023/07/05 18:53:06;;;;;;;11.15;4.97;;;;;;;;;;10328913;28;20079;-57
2023/07/05 18:58:05;;;;;;;9.38;4.78;;;;;;;;;;10332780;28;20075;-58
2023/07/05 19:03:03;;;;;;;10.50;4.28;;;;;;;;;;10330492;28;20083;-57
2023/07/05 19:08:02;;;;;;;7.25;5.95;;;;;;;;;;10332068;28;20063;-57
2023/07/05 19:13:02;;;;;;;6.30;3.92;;;;;;;;;;10338676;28;20540;-57
2023/07/05 19:18:00;;;;;;;12.68;3.97;;;;;;;;;;10336590;28;20064;-56
2023/07/05 19:22:58;;;;;;;9.80;4.15;;;;;;;;;;10330909;28;20086;-57
2023/07/05 19:27:57;;;;;;;8.52;3.65;;;;;;;;;;10335745;28;20060;-57
2023/07/05 19:32:56;;;;;;;9.32;4.15;;;;;;;;;;10340828;28;20071;-59
2023/07/05 19:37:54;;;;;;;6.20;3.88;;;;;;;;;;10336157;28;20079;-58
2023/07/05 19:42:53;;;;;;;4.00;3.50;;;;;;;;;;10341052;28;20094;-59
2023/07/05 19:47:52;;;;;;;4.85;4.30;;;;;;;;;;10342635;28;20172;-57
2023/07/05 19:52:51;;;;;;;6.93;3.90;;;;;;;;;;10344836;28;20076;-58
2023/07/05 19:57:50;;;;;;;4.25;3.50;;;;;;;;;;10343087;28;20489;-57
2023/07/05 20:02:48;;;;;;;6.40;3.50;;;;;;;;;;10336419;28;20072;-56
2023/07/05 20:07:46;;;;;;;7.10;3.28;;;;;;;;;;10342153;28;20505;-58
2023/07/05 20:12:46;;;;;;;3.80;3.10;;;;;;;;;;10339511;28;20492;-57
2023/07/05 20:17:44;;;;;;;10.88;4.20;;;;;;;;;;10336013;28;20067;-59
2023/07/05 20:22:42;;;;;;;3.58;3.05;;;;;;;;;;10338914;28;20481;-57
2023/07/05 20:27:40;;;;;;;5.22;3.58;;;;;;;;;;10344199;28;20074;-57
2023/07/05 20:32:40;;;;;;;6.15;3.05;;;;;;;;;;10336895;28;20060;-57
2023/07/05 20:37:39;;;;;;;4.45;3.05;;;;;;;;;;10342835;28;20528;-57
2023/07/05 20:42:52;;;;;;;3.27;2.53;;;;;;;;;;10348160;28;20075;-60
2023/07/05 20:47:52;;;;;;;6.90;3.88;;;;;;;;;;10341730;28;20082;-57
2023/07/05 20:52:50;;;;;;;6.65;4.03;;;;;;;;;;10349898;28;20068;-58
2023/07/05 20:57:48;;;;;;;5.90;4.00;;;;;;;;;;10342527;28;20071;-57
2023/07/05 21:02:46;;;;;;;8.77;4.88;;;;;;;;;;10346802;28;20068;-58
2023/07/05 21:07:49;;;;;;;5.28;4.78;;;;;;;;;;10346142;28;20063;-58
2023/07/05 21:12:47;;;;;;;8.07;5.03;;;;;;;;;;10336448;28;20079;-58
2023/07/05 21:17:46;;;;;;;9.27;4.18;;;;;;;;;;10342471;28;20071;-57
2023/07/05 21:22:45;;;;;;;12.77;4.88;;;;;;;;;;10340082;28;20063;-56
2023/07/05 21:27:44;;;;;;;7.80;4.75;;;;;;;;;;10333306;28;20515;-58
2023/07/05 21:32:42;;;;;;;6.57;3.70;;;;;;;;;;10329828;28;20493;-56
2023/07/05 21:37:40;;;;;;;8.40;3.25;;;;;;;;;;10341750;28;20080;-58
2023/07/05 21:42:40;;;;;;;7.03;3.22;;;;;;;;;;10340543;28;20603;-58
2023/07/05 21:47:40;;;;;;;4.03;3.22;;;;;;;;;;10336765;28;20134;-58
2023/07/05 21:52:38;;;;;;;6.80;3.42;;;;;;;;;;10337385;28;20063;-58
2023/07/05 21:57:37;;;;;;;8.00;4.00;;;;;;;;;;10341269;28;20071;-56
2023/07/05 22:02:36;;;;;;;4.05;3.63;;;;;;;;;;10337356;28;20075;-57
2023/07/05 22:07:35;;;;;;;4.50;2.97;;;;;;;;;;10332927;28;20079;-58
2023/07/05 22:12:33;;;;;;;7.30;2.78;;;;;;;;;;10340242;28;20068;-58
2023/07/05 22:17:32;;;;;;;9.20;3.55;;;;;;;;;;10334981;28;20064;-57
2023/07/05 22:22:33;;;;;;;6.55;2.80;;;;;;;;;;10341881;28;20087;-58
2023/07/05 22:27:33;;;;;;;3.75;3.35;;;;;;;;;;10337643;28;20068;-58
2023/07/05 22:32:32;;;;;;;5.70;3.65;;;;;;;;;;10338268;28;20072;-58
2023/07/05 22:37:32;;;;;;;5.10;3.80;;;;;;;;;;10337608;28;20076;-57
2023/07/05 22:42:30;;;;;;;4.35;3.58;;;;;;;;;;10340566;28;20074;-57
2023/07/05 22:47:28;;;;;;;8.68;3.22;;;;;;;;;;10334045;28;20084;-58
2023/07/05 22:52:26;;;;;;;9.27;4.03;;;;;;;;;;10335620;28;20079;-56
2023/07/05 22:57:26;;;;;;;6.00;3.83;;;;;;;;;;10336328;28;20080;-56
2023/07/05 23:02:25;;;;;;;9.77;4.03;;;;;;;;;;10333500;28;20076;-56
2023/07/05 23:07:23;;;;;;;6.82;3.30;;;;;;;;;;10329838;28;20117;-56
2023/07/05 23:12:21;;;;;;;6.40;3.58;;;;;;;;;;10334552;28;20808;-55
2023/07/05 23:17:21;;;;;;;4.22;2.83;;;;;;;;;;10335977;28;20079;-56
2023/07/05 23:22:19;;;;;;;7.72;3.30;;;;;;;;;;10331213;28;20076;-56
2023/07/05 23:27:17;;;;;;;7.53;3.30;;;;;;;;;;10333575;28;20068;-58
2023/07/05 23:32:16;;;;;;;3.22;2.92;;;;;;;;;;10333088;28;20084;-57
2023/07/05 23:37:15;;;;;;;7.65;3.22;;;;;;;;;;10336446;28;20072;-58
2023/07/05 23:42:14;;;;;;;3.75;3.15;;;;;;;;;;10329580;28;20091;-58
2023/07/05 23:47:12;;;;;;;4.28;3.10;;;;;;;;;;10335141;28;20106;-57
2023/07/05 23:52:13;;;;;;;5.65;3.63;;;;;;;;;;10332834;28;20076;-58
2023/07/05 23:57:13;;;;;;;5.35;3.53;;;;;;;;;;10332216;28;20095;-58
